• Join FlightAware (Why Join?)
  • Login
  • US Flag 
10:53PM EDT


 

Airport Tracker/Info


-or-


 

Live Flight TrackerFlight Track Log ✈ JBU407 ✈ 14-May-2013 ✈ KBOS - KPHX

Flight Track Log - Related Links

Times and Time Zones

All times are in EDT time to prevent confusion due to time zone crossing. See the JBU407 flight status page for this flight to view local times or setup timezone preferences in your user account.

Time Position Orientation Groundspeed Altitude Reporting Facility
EDT Latitude Longitude Course Direction KTS MPH feet Rate Location/Type
07:04PM 42.3930 -71.0500 298° West 167 192 1,900  Level FlightAware
07:05PM 42.4070 -71.0820 301° West 206 237 2,500 1,260 Climbing FlightAware
07:05PM 42.4240 -71.1090 310° West 241 277 3,100 2,100 Climbing FlightAware
07:05PM 42.4400 -71.1190 335° Northwest 242 278 3,900 3,180 Climbing FlightAware
07:06PM 42.4730 -71.1340 341° North 255 293 5,500 2,400 Climbing FlightAware
07:06PM 42.5070 -71.1490 342° North 253 291 6,300 2,400 Climbing FlightAware
07:07PM 42.5350 -71.1620 341° North 253 291 7,700 3,000 Climbing FlightAware
07:07PM 42.5710 -71.1780 342° North 261 300 9,100 2,520 Climbing FlightAware
07:08PM 42.6190 -71.2010 341° North 275 316 10,700 1,680 Climbing FlightAware
07:09PM 42.6810 -71.2290 342° North 323 372 11,500 1,440 Climbing FlightAware
07:09PM 42.7390 -71.2560 341° North 346 398 12,800 2,160 Climbing FlightAware
07:10PM 42.7610 -71.2720 332° Northwest 346 398 13,500 2,580 Climbing FlightAware
07:10PM 42.7770 -71.2980 310° West 345 397 14,100 2,280 Climbing FlightAware
07:10PM 42.7930 -71.3810 285° West 355 409 15,600 1,920 Climbing FlightAware
07:11PM 42.8030 -71.4730 278° West 369 425 16,700 1,080 Climbing FlightAware
07:12PM 42.8150 -71.5870 278° West 401 461 17,200 1,020 Climbing FlightAware
07:13PM 42.8250 -71.6890 278° West 410 472 18,200 1,620 Climbing FlightAware
07:13PM 42.8350 -71.8020 277° West 412 474 19,500 1,500 Climbing FlightAware
07:14PM 42.8450 -71.9040 278° West 417 480 20,400 1,320 Climbing FlightAware
07:15PM 42.8540 -72.0090 277° West 423 487 21,300 1,320 Climbing FlightAware
07:15PM 42.8660 -72.1320 278° West 426 490 22,300 1,080 Climbing FlightAware
07:16PM 42.8750 -72.2380 277° West 432 497 22,900 840 Climbing FlightAware
07:17PM 42.8860 -72.3560 277° West 438 504 23,500 840 Climbing FlightAware
07:17PM 42.8960 -72.4680 277° West 441 507 24,100 780 Climbing FlightAware
07:18PM 42.9050 -72.5780 276° West 444 511 24,600 780 Climbing FlightAware
07:19PM 42.9130 -72.6740 277° West 445 512 25,200 660 Climbing FlightAware
07:20PM 42.9290 -72.8650 277° West 443 510 25,900 720 Climbing FlightAware
07:21PM 42.9470 -73.0710 277° West 446 513 26,900 900 Climbing FlightAware
07:22PM 42.9560 -73.1830 276° West 449 517 27,700 2,100 Climbing FlightAware
07:23PM 42.9660 -73.3030 277° West 29,400 2,640 Climbing FlightAware
07:23PM 42.9750 -73.4270 276° West 393 452 31,500 1,380 Climbing FlightAware
07:24PM 42.9840 -73.5430 276° West 398 458 31,700 120 Climbing FlightAware
07:25PM 42.9910 -73.6280 276° West 398 458 31,700  Level FlightAware
07:26PM 42.9970 -73.7130 276° West 398 458 31,700  Level FlightAware
07:26PM 43.0040 -73.7980 276° West 398 458 31,700 1,500 Level FlightAware
07:27PM 43.0180 -73.9850 276° West 400 460 34,000 1,500 Climbing FlightAware
07:28PM 43.0260 -74.0890 276° West 411 473 34,000  Level FlightAware
07:28PM 43.0330 -74.1910 275° West 408 470 34,000  Level FlightAware
07:29PM 43.0420 -74.3240 275° West 403 464 34,000  Level FlightAware
07:30PM 43.0510 -74.4450 276° West 402 463 34,000  Level FlightAware
07:31PM 43.0590 -74.5540 276° West 395 455 34,000  Level FlightAware
07:31PM 43.0650 -74.6440 275° West 390 449 34,000  Level FlightAware
07:32PM 43.0720 -74.7490 275° West 387 445 34,000  Level FlightAware
07:33PM 43.0825 -74.8964 275° West 399 459 34,000  Level Boston Center
07:34PM 43.0917 -75.0444 275° West 393 452 34,000 -60 Level Boston Center
07:35PM 43.0975 -75.1586 274° West 387 445 33,900 -60 Descending Boston Center
07:36PM 43.1078 -75.3325 275° West 387 445 33,900  Level Boston Center
07:37PM 43.1186 -75.4781 276° West 387 445 34,000  Climbing Boston Center
07:43PM 43.1190 -76.3330 276° West 425 489 34,000  Level FlightAware
07:44PM 43.0733 -76.4844 276° West 415 478 34,000 -60 Level Cleveland Center
07:45PM 43.0264 -76.6325 247° West 420 483 33,900  Descending Cleveland Center
07:46PM 42.9733 -76.7947 246° West 425 489 34,000  Climbing Cleveland Center
07:47PM 42.9258 -76.9394 246° West 425 489 34,000  Level Cleveland Center
07:48PM 42.8783 -77.0867 246° West 425 489 34,000  Level Cleveland Center
07:49PM 42.8306 -77.2339 246° West 425 489 34,000  Level Cleveland Center
07:50PM 42.7825 -77.3778 246° West 425 489 34,000  Level Cleveland Center
07:51PM 42.7367 -77.5244 247° West 425 489 34,000  Level Cleveland Center
07:52PM 42.6900 -77.6567 244° Southwest 433 498 34,000  Level Cleveland Center
07:53PM 42.6436 -77.8028 247° West 427 491 34,000  Level Cleveland Center
07:54PM 42.5992 -77.9514 248° West 427 491 34,000  Level Cleveland Center
07:55PM 42.5586 -78.1025 250° West 427 491 34,000  Level Cleveland Center
07:56PM 42.5161 -78.2564 250° West 433 498 34,000  Level Cleveland Center
07:57PM 42.4731 -78.4072 249° West 433 498 34,000  Level Cleveland Center
07:58PM 42.4300 -78.5550 249° West 433 498 34,000  Level Cleveland Center
07:59PM 42.3867 -78.7053 249° West 433 498 34,000  Level Cleveland Center
08:00PM 42.3431 -78.8556 249° West 433 498 34,000  Level Cleveland Center
08:01PM 42.2992 -79.0000 248° West 433 498 34,000  Level Cleveland Center
08:02PM 42.2556 -79.1525 249° West 433 498 34,000  Level Cleveland Center
08:03PM 42.2114 -79.2992 248° West 433 498 34,000  Level Cleveland Center
08:04PM 42.1631 -79.4600 248° West 433 498 34,000  Level Cleveland Center
08:05PM 42.1225 -79.6006 249° West 428 493 34,000  Level Cleveland Center
08:06PM 42.0778 -79.7439 247° West 422 486 34,000  Level Cleveland Center
08:07PM 42.0331 -79.8900 248° West 417 480 34,000  Level Cleveland Center
08:08PM 41.9900 -80.0300 248° West 417 480 34,000  Level Cleveland Center
08:09PM 41.9447 -80.1756 247° West 417 480 34,000  Level Cleveland Center
08:14PM 41.7240 -80.8910 247° West 414 476 34,000  Level FlightAware
08:15PM 41.6910 -80.9950 247° West 413 475 34,000  Level FlightAware
08:16PM 41.6600 -81.0910 247° West 413 475 34,000  Level FlightAware
08:16PM 41.6270 -81.1970 247° West 416 479 34,000  Level FlightAware
08:17PM 41.5960 -81.2940 247° West 426 490 34,000  Level FlightAware
08:18PM 41.5620 -81.4000 247° West 425 489 34,000  Level FlightAware
08:18PM 41.5290 -81.5000 246° West 426 490 34,000  Level FlightAware
08:19PM 41.4990 -81.5930 247° West 428 493 34,000  Level FlightAware
08:20PM 41.4630 -81.7040 247° West 430 495 34,000  Level FlightAware
08:20PM 41.4320 -81.8010 247° West 429 494 34,000  Level FlightAware
08:21PM 41.3960 -81.9100 246° West 428 493 34,000  Level FlightAware
08:22PM 41.3640 -82.0080 247° West 429 494 34,000  Level FlightAware
08:23PM 41.3340 -82.1000 247° West 429 494 34,000  Level FlightAware
08:23PM 41.2980 -82.2080 246° West 430 495 34,000  Level FlightAware
08:24PM 41.2650 -82.3070 246° West 429 494 34,000  Level FlightAware
08:25PM 41.2340 -82.4010 246° West 428 493 34,000  Level FlightAware
08:25PM 41.1990 -82.5070 246° West 428 493 34,000  Level FlightAware
08:26PM 41.1660 -82.6050 246° West 427 491 34,000  Level FlightAware
08:27PM 41.1310 -82.7100 246° West 427 491 34,000  Level FlightAware
08:27PM 41.0990 -82.8030 245° Southwest 428 493 34,000  Level FlightAware
08:28PM 41.0660 -82.9010 246° West 430 495 34,000  Level FlightAware
08:29PM 41.0270 -83.0170 246° West 432 497 34,000  Level FlightAware
08:30PM 40.9810 -83.1490 245° Southwest 433 498 34,000  Level FlightAware
08:31PM 40.9460 -83.2540 246° West 429 494 34,000  Level FlightAware
08:31PM 40.9110 -83.3530 245° Southwest 433 498 34,000  Level FlightAware
08:32PM 40.8810 -83.4410 246° West 434 499 34,000  Level FlightAware
08:33PM 40.8440 -83.5480 245° Southwest 435 501 34,000  Level FlightAware
08:33PM 40.8080 -83.6520 245° Southwest 436 502 34,000  Level FlightAware
08:34PM 40.7690 -83.7630 245° Southwest 437 503 34,000  Level FlightAware
08:35PM 40.7360 -83.8550 245° Southwest 436 502 34,000  Level FlightAware
08:35PM 40.7020 -83.9540 246° West 434 499 34,000  Level FlightAware
08:36PM 40.6650 -84.0580 245° Southwest 434 499 34,000  Level FlightAware
08:37PM 40.6300 -84.1570 245° Southwest 437 503 34,000  Level FlightAware
08:37PM 40.5970 -84.2500 245° Southwest 439 505 34,000  Level FlightAware
08:38PM 40.5560 -84.3650 245° Southwest 440 506 34,000  Level FlightAware
08:39PM 40.5220 -84.4600 245° Southwest 440 506 34,000  Level FlightAware
08:40PM 40.4830 -84.5670 244° Southwest 435 501 34,000  Level FlightAware
08:40PM 40.4490 -84.6620 245° Southwest 434 499 34,000  Level FlightAware
08:41PM 40.4100 -84.7710 245° Southwest 438 504 34,000  Level FlightAware
08:42PM 40.3760 -84.8650 245° Southwest 440 506 34,000  Level FlightAware
08:42PM 40.3430 -84.9560 245° Southwest 441 507 34,000  Level FlightAware
08:43PM 40.3130 -85.0720 251° West 427 491 34,000  Level FlightAware
08:44PM 40.2990 -85.1580 258° West 427 491 34,000  Level FlightAware
08:44PM 40.2780 -85.2770 257° West 428 493 34,000  Level FlightAware
08:45PM 40.2600 -85.3830 257° West 428 493 34,000  Level FlightAware
08:46PM 40.2430 -85.4820 257° West 429 494 34,000  Level FlightAware
08:47PM 40.2250 -85.5870 257° West 429 494 34,000  Level FlightAware
08:47PM 40.2040 -85.7020 257° West 431 496 34,000  Level FlightAware
08:48PM 40.1890 -85.7870 257° West 432 497 34,000  Level FlightAware
08:49PM 40.1660 -85.9200 257° West 432 497 34,000  Level FlightAware
08:49PM 40.1480 -86.0210 257° West 433 498 34,000  Level FlightAware
08:50PM 40.1300 -86.1180 256° West 434 499 34,000  Level FlightAware
08:51PM 40.1090 -86.2350 257° West 434 499 34,000  Level FlightAware
08:51PM 40.0900 -86.3400 257° West 434 499 34,000  Level FlightAware
08:52PM 40.0700 -86.4490 257° West 434 499 34,000  Level FlightAware
08:53PM 40.0430 -86.5940 256° West 434 499 34,000  Level FlightAware
08:54PM 40.0280 -86.6750 256° West 431 496 34,000  Level FlightAware
08:55PM 40.0030 -86.8080 256° West 429 494 34,000  Level FlightAware
08:55PM 39.9850 -86.9060 257° West 429 494 34,000  Level FlightAware
08:56PM 39.9670 -87.0010 256° West 429 494 34,000  Level FlightAware
08:57PM 39.9420 -87.1300 256° West 430 495 34,000  Level FlightAware
08:57PM 39.9230 -87.2340 257° West 429 494 34,000  Level FlightAware
08:58PM 39.9040 -87.3330 256° West 429 494 34,000  Level FlightAware
08:59PM 39.8880 -87.4150 256° West 430 495 34,000  Level FlightAware
08:59PM 39.8630 -87.5410 256° West 430 495 34,000  Level FlightAware
09:00PM 39.8430 -87.6460 256° West 432 497 34,000  Level FlightAware
09:01PM 39.8200 -87.7620 256° West 433 498 34,000  Level FlightAware
09:02PM 39.8010 -87.8600 256° West 434 499 34,000  Level FlightAware
09:02PM 39.7740 -87.9940 255° West 434 499 34,000  Level FlightAware
09:03PM 39.7540 -88.0970 256° West 436 502 34,000  Level FlightAware
09:04PM 39.7300 -88.2150 255° West 438 504 34,000  Level FlightAware
09:05PM 39.7050 -88.3400 255° West 438 504 34,000  Level FlightAware
09:06PM 39.6780 -88.4740 255° West 440 506 34,000  Level FlightAware
09:06PM 39.6560 -88.5780 255° West 442 509 34,000  Level FlightAware
09:07PM 39.6360 -88.6790 256° West 443 510 34,000  Level FlightAware
09:08PM 39.6130 -88.7910 255° West 445 512 34,000  Level FlightAware
09:08PM 39.5920 -88.8920 255° West 446 513 34,000  Level FlightAware
09:09PM 39.5700 -88.9980 255° West 446 513 34,000  Level FlightAware
09:10PM 39.5460 -89.1090 254° West 447 514 34,000  Level FlightAware
09:10PM 39.5240 -89.2160 255° West 448 516 34,000  Level FlightAware
09:11PM 39.5000 -89.3320 255° West 448 516 34,000  Level FlightAware
09:12PM 39.4760 -89.4400 254° West 448 516 34,000  Level FlightAware
09:12PM 39.4550 -89.5420 255° West 449 517 34,000  Level FlightAware
09:13PM 39.4300 -89.6560 254° West 450 518 34,000  Level FlightAware
09:14PM 39.4040 -89.7780 255° West 451 519 34,000  Level FlightAware
09:15PM 39.3830 -89.8770 255° West 449 517 34,000  Level FlightAware
09:15PM 39.3600 -89.9780 254° West 448 516 34,000  Level FlightAware
09:16PM 39.3350 -90.0950 255° West 446 513 34,000  Level FlightAware
09:17PM 39.3070 -90.2180 254° West 445 512 34,000  Level FlightAware
09:18PM 39.2810 -90.3400 255° West 446 513 34,000  Level FlightAware
09:18PM 39.2550 -90.4540 254° West 447 514 34,000  Level FlightAware
09:19PM 39.2330 -90.5520 254° West 446 513 34,000  Level FlightAware
09:20PM 39.2120 -90.6460 254° West 446 513 34,000  Level FlightAware
09:20PM 39.1890 -90.7450 253° West 446 513 34,000  Level FlightAware
09:21PM 39.1620 -90.8640 254° West 447 514 34,000  Level FlightAware
09:22PM 39.1350 -90.9880 254° West 448 516 34,000  Level FlightAware
09:23PM 39.1050 -91.1160 253° West 448 516 34,000  Level FlightAware
09:23PM 39.0840 -91.2030 253° West 448 516 34,000  Level FlightAware
09:24PM 39.0520 -91.3470 254° West 450 518 34,000  Level FlightAware
09:25PM 39.0330 -91.4280 253° West 450 518 34,000  Level FlightAware
09:25PM 39.0120 -91.5150 253° West 450 518 34,000  Level FlightAware
09:26PM 38.9780 -91.6650 254° West 453 521 34,000  Level FlightAware
09:27PM 38.9570 -91.7530 253° West 453 521 34,000  Level FlightAware
09:28PM 38.9320 -91.8600 253° West 453 521 34,000  Level FlightAware
09:28PM 38.9000 -91.9940 253° West 454 522 34,000  Level FlightAware
09:29PM 38.8730 -92.1050 253° West 454 522 34,000  Level FlightAware
09:30PM 38.8530 -92.1860 252° West 454 522 34,000  Level FlightAware
09:30PM 38.8310 -92.2730 252° West 454 522 34,000  Level FlightAware
09:31PM 38.8000 -92.4030 253° West 456 525 34,000  Level FlightAware
09:32PM 38.7780 -92.4900 252° West 456 525 34,000  Level FlightAware
09:33PM 38.7440 -92.6360 253° West 461 531 34,000  Level FlightAware
09:33PM 38.7150 -92.7540 253° West 462 532 34,000  Level FlightAware
09:34PM 38.6910 -92.8540 253° West 462 532 34,000  Level FlightAware
09:35PM 38.6540 -92.9990 252° West 463 533 34,000  Level FlightAware
09:36PM 38.6250 -93.1190 253° West 466 536 34,000  Level FlightAware
09:36PM 38.5980 -93.2250 252° West 467 537 34,000  Level FlightAware
09:37PM 38.5690 -93.3400 252° West 467 537 34,000  Level FlightAware
09:38PM 38.5420 -93.4490 252° West 468 539 34,000  Level FlightAware
09:38PM 38.5120 -93.5660 252° West 468 539 34,000  Level FlightAware
09:39PM 38.4850 -93.6690 252° West 471 542 34,000  Level FlightAware
09:40PM 38.4580 -93.7750 252° West 472 543 34,000  Level FlightAware
09:41PM 38.4270 -93.8950 252° West 472 543 34,000  Level FlightAware
09:41PM 38.4000 -94.0010 252° West 470 541 34,000  Level FlightAware
09:42PM 38.3700 -94.1160 252° West 467 537 34,000  Level FlightAware
09:43PM 38.3430 -94.2220 252° West 465 535 34,000  Level FlightAware
09:43PM 38.3160 -94.3230 251° West 466 536 34,000  Level FlightAware
09:44PM 38.2840 -94.4460 252° West 466 536 34,000  Level FlightAware
09:45PM 38.2620 -94.5500 255° West 468 539 34,000  Level FlightAware
09:45PM 38.2460 -94.6560 259° West 469 540 34,000  Level FlightAware
09:46PM 38.2270 -94.7780 259° West 470 541 34,000  Level FlightAware
09:47PM 38.2110 -94.8800 259° West 469 540 34,000  Level FlightAware
09:48PM 38.1900 -95.0110 259° West 470 541 34,000  Level FlightAware
09:48PM 38.1720 -95.1190 258° West 471 542 34,000  Level FlightAware
09:49PM 38.1540 -95.2260 258° West 472 543 34,000  Level FlightAware
09:50PM 38.1340 -95.3460 258° West 472 543 34,000  Level FlightAware
09:50PM 38.1150 -95.4540 257° West 473 544 34,000  Level FlightAware
09:51PM 38.0940 -95.5790 258° West 476 548 34,000  Level FlightAware
09:52PM 38.0740 -95.6890 257° West 476 548 34,000  Level FlightAware
09:52PM 38.0550 -95.7980 258° West 477 549 34,000  Level FlightAware
09:53PM 38.0350 -95.9140 258° West 477 549 34,000  Level FlightAware
09:54PM 38.0170 -96.0280 259° West 479 551 34,000  Level FlightAware
09:55PM 37.9960 -96.1530 258° West 481 554 34,000  Level FlightAware
09:55PM 37.9760 -96.2750 258° West 483 556 34,000  Level FlightAware
09:56PM 37.9580 -96.3800 258° West 484 557 34,000  Level FlightAware
09:57PM 37.9360 -96.5120 258° West 485 558 34,000  Level FlightAware
09:57PM 37.9180 -96.6210 258° West 485 558 34,000  Level FlightAware
09:58PM 37.8990 -96.7340 258° West 486 559 34,000  Level FlightAware
09:59PM 37.8770 -96.8570 257° West 486 559 34,000  Level FlightAware
09:59PM 37.8570 -96.9690 257° West 487 560 34,000  Level FlightAware
10:00PM 37.8350 -97.0950 258° West 487 560 34,000  Level FlightAware
10:01PM 37.8150 -97.2070 257° West 488 562 34,000  Level FlightAware
10:02PM 37.7950 -97.3120 256° West 488 562 34,000  Level FlightAware
10:02PM 37.7720 -97.4380 257° West 488 562 34,000  Level FlightAware
10:03PM 37.7520 -97.5490 257° West 488 562 34,000  Level FlightAware
10:04PM 37.7310 -97.6620 257° West 489 563 34,000  Level FlightAware
10:04PM 37.7060 -97.7880 256° West 488 562 34,000  Level FlightAware
10:05PM 37.6850 -97.8990 257° West 488 562 34,000  Level FlightAware
10:06PM 37.6620 -98.0200 257° West 489 563 34,000  Level FlightAware
10:06PM 37.6400 -98.1290 256° West 490 564 34,000  Level FlightAware
10:07PM 37.6150 -98.2580 256° West 490 564 34,000  Level FlightAware
10:08PM 37.5920 -98.3710 256° West 491 565 34,000  Level FlightAware
10:09PM 37.5710 -98.4780 256° West 491 565 34,000  Level FlightAware
10:09PM 37.5500 -98.5860 256° West 491 565 34,000  Level FlightAware
10:10PM 37.5240 -98.7150 256° West 492 566 34,000  Level FlightAware
10:11PM 37.5030 -98.8200 256° West 493 567 34,000  Level FlightAware
10:11PM 37.4780 -98.9330 254° West 493 567 34,000  Level FlightAware
10:12PM 37.4500 -99.0770 256° West 492 566 34,000  Level FlightAware
10:13PM 37.4250 -99.1940 255° West 492 566 34,000  Level FlightAware
10:14PM 37.4100 -99.2650 255° West 492 566 34,000  Level FlightAware
10:14PM 37.3850 -99.3820 255° West 492 566 34,000  Level FlightAware
10:15PM 37.3650 -99.4770 255° West 492 566 34,000  Level FlightAware
10:16PM 37.3450 -99.5710 255° West 492 566 34,000  Level FlightAware
10:17PM 37.3190 -99.6880 254° West 492 566 34,000  Level FlightAware
10:17PM 37.2990 -99.7820 255° West 492 566 34,000  Level FlightAware
10:18PM 37.2790 -99.8760 255° West 492 566 34,000  Level FlightAware
10:19PM 37.2590 -99.9700 255° West 492 566 34,000  Level FlightAware
10:19PM 37.2390 -100.0640 255° West 492 566 34,000  Level FlightAware
10:20PM 37.2190 -100.1580 255° West 492 566 34,000  Level FlightAware
10:21PM 37.1940 -100.2750 255° West 492 566 34,000  Level FlightAware
10:21PM 37.1740 -100.3690 255° West 492 566 34,000  Level FlightAware
10:22PM 37.1028 -100.7044 255° West 489 563 34,000  Level Kansas City Center
10:23PM 37.0686 -100.8644 255° West 492 566 34,000  Level Kansas City Center
10:24PM 37.0211 -101.0478 252° West 493 567 34,000  Level Kansas City Center
10:25PM 36.9733 -101.1997 249° West 490 564 34,000  Level Kansas City Center
10:26PM 36.9175 -101.3783 249° West 493 567 34,000  Level Kansas City Center
10:27PM 36.8942 -101.4547 249° West 494 568 34,000  Level Albuquerque Center
10:28PM 36.8456 -101.6067 248° West 493 567 34,000  Level Albuquerque Center
10:29PM 36.7972 -101.7592 248° West 493 567 34,000  Level Albuquerque Center
10:30PM 36.7408 -101.9364 248° West 493 567 34,000  Level Albuquerque Center
10:31PM 36.6917 -102.0894 248° West 494 568 34,000  Level Albuquerque Center
10:32PM 36.6369 -102.2581 248° West 495 570 34,000  Level Albuquerque Center
10:33PM 36.5853 -102.4147 248° West 493 567 34,000  Level Albuquerque Center
10:34PM 36.5339 -102.5736 248° West 496 571 34,000  Level Albuquerque Center
10:35PM 36.4819 -102.7306 248° West 495 570 34,000  Level Albuquerque Center
10:36PM 36.4250 -102.9089 248° West 495 570 34,000  Level Albuquerque Center
10:37PM 36.3717 -103.0675 247° West 496 571 34,000  Level Albuquerque Center
10:38PM 36.3186 -103.2253 247° West 493 567 34,000  Level Albuquerque Center
10:39PM 36.2661 -103.3839 248° West 494 568 34,000  Level Albuquerque Center
10:40PM 36.2125 -103.5419 247° West 494 568 34,000  Level Albuquerque Center
10:41PM 36.1592 -103.6992 247° West 494 568 34,000  Level Albuquerque Center
10:42PM 36.1053 -103.8550 247° West 491 565 34,000  Level Albuquerque Center
10:43PM 36.0517 -104.0094 247° West 489 563 34,000  Level Albuquerque Center
10:44PM 35.9978 -104.1664 247° West 492 566 34,000  Level Albuquerque Center
10:45PM 35.9439 -104.3211 247° West 491 565 34,000  Level Albuquerque Center
10:46PM 35.8900 -104.4761 247° West 491 565 34,000  Level Albuquerque Center
10:47PM 35.8358 -104.6303 247° West 490 564 34,000  Level Albuquerque Center
10:48PM 35.7817 -104.7847 247° West 490 564 34,000  Level Albuquerque Center
10:49PM 35.7181 -104.9650 247° West 491 565 34,000 480 Level Albuquerque Center
10:50PM 35.6736 -105.1172 250° West 482 555 35,000 240 Climbing Albuquerque Center
10:56PM 35.5270 -106.0370 250° West 487 560 36,000 120 Climbing FlightAware
10:57PM 35.5090 -106.1470 259° West 487 560 36,000  Level FlightAware
10:57PM 35.4880 -106.2730 258° West 490 564 36,000  Level FlightAware
10:58PM 35.4690 -106.3830 258° West 490 564 36,000  Level FlightAware
10:59PM 35.4490 -106.5020 258° West 493 567 36,000  Level FlightAware
10:59PM 35.4310 -106.6110 259° West 490 564 36,000  Level FlightAware
11:00PM 35.4100 -106.7330 258° West 487 560 36,000  Level FlightAware
11:01PM 35.3910 -106.8430 258° West 491 565 36,000  Level FlightAware
11:02PM 35.3690 -106.9650 258° West 493 567 36,000  Level FlightAware
11:02PM 35.3500 -107.0740 258° West 494 568 36,000  Level FlightAware
11:03PM 35.3320 -107.1810 258° West 492 566 36,000  Level FlightAware
11:04PM 35.3090 -107.3070 257° West 491 565 36,000  Level FlightAware
11:04PM 35.2900 -107.4130 258° West 490 564 36,000  Level FlightAware
11:05PM 35.2710 -107.5210 258° West 493 567 36,000  Level FlightAware
11:06PM 35.2490 -107.6430 258° West 495 570 36,000  Level FlightAware
11:06PM 35.2290 -107.7520 257° West 490 564 36,000  Level FlightAware
11:07PM 35.2070 -107.8730 257° West 482 555 36,000 -420 Level FlightAware
11:08PM 35.1910 -107.9630 258° West 480 552 35,500 -900 Descending FlightAware
11:08PM 35.1680 -108.0860 257° West 477 549 34,800 -960 Descending FlightAware
11:09PM 35.1470 -108.1990 257° West 471 542 34,100 -540 Descending FlightAware
11:10PM 35.1250 -108.3210 258° West 475 547 34,000 -120 Descending FlightAware
11:11PM 35.1050 -108.4250 257° West 468 539 34,000  Level FlightAware
11:11PM 35.0880 -108.5180 257° West 467 537 34,000  Level FlightAware
11:12PM 35.0590 -108.6680 257° West 469 540 34,000  Level FlightAware
11:13PM 35.0380 -108.7780 257° West 475 547 34,000  Level FlightAware
11:14PM 35.0220 -108.8600 257° West 475 547 34,000 60 Level FlightAware
11:14PM 34.9830 -109.0030 252° West 477 549 34,100  Climbing FlightAware
11:15PM 34.9520 -109.1020 249° West 476 548 34,000 -120 Descending FlightAware
11:16PM 34.9170 -109.2120 249° West 476 548 34,000  Level FlightAware
11:16PM 34.8850 -109.3120 249° West 476 548 34,000  Level FlightAware
11:17PM 34.8520 -109.4120 248° West 476 548 34,000  Level FlightAware
11:18PM 34.8150 -109.5260 248° West 477 549 34,000  Level FlightAware
11:19PM 34.7800 -109.6370 249° West 479 551 34,000  Level FlightAware
11:19PM 34.7470 -109.7360 248° West 478 550 34,000 -240 Level FlightAware
11:20PM 34.7180 -109.8260 249° West 471 542 33,700 -780 Descending FlightAware
11:21PM 34.6810 -109.9330 247° West 464 534 33,000 -960 Descending FlightAware
11:21PM 34.6400 -110.0410 245° Southwest 464 534 32,300 -960 Descending FlightAware
11:22PM 34.6030 -110.1380 245° Southwest 466 536 31,700 -1,020 Descending FlightAware
11:23PM 34.5640 -110.2420 246° West 464 534 30,900 -1,140 Descending FlightAware
11:23PM 34.5290 -110.3360 246° West 459 528 30,100 -1,320 Descending FlightAware
11:24PM 34.4900 -110.4400 246° West 440 506 29,100 -1,500 Descending FlightAware
11:25PM 34.4580 -110.5240 245° Southwest 428 493 28,000 -1,800 Descending FlightAware
11:26PM 34.4230 -110.6160 245° Southwest 417 480 26,700 -1,920 Descending FlightAware
11:26PM 34.3880 -110.7070 245° Southwest 407 468 25,300 -1,920 Descending FlightAware
11:27PM 34.3570 -110.7780 242° Southwest 399 459 24,200 -1,740 Descending FlightAware
11:28PM 34.3030 -110.8600 231° Southwest 395 455 22,600 -1,800 Descending FlightAware
11:29PM 34.2450 -110.9360 227° Southwest 389 448 21,100 -2,040 Descending FlightAware
11:29PM 34.2030 -110.9910 227° Southwest 385 443 19,900 -1,980 Descending FlightAware
11:30PM 34.1490 -111.0610 227° Southwest 375 432 18,500 -1,920 Descending FlightAware
11:31PM 34.0980 -111.1260 227° Southwest 366 421 17,200 -1,800 Descending FlightAware
11:32PM 34.0340 -111.2080 227° Southwest 353 406 15,500 -1,740 Descending FlightAware
11:32PM 33.9870 -111.2680 227° Southwest 346 398 14,300 -1,980 Descending FlightAware
11:33PM 33.9420 -111.3260 227° Southwest 343 395 12,900 -1,680 Descending FlightAware
11:34PM 33.8900 -111.3930 227° Southwest 331 381 11,800 -1,380 Descending FlightAware
11:34PM 33.8500 -111.4310 218° Southwest 305 351 11,000 -1,440 Descending FlightAware
11:35PM 33.8000 -111.4740 216° Southwest 294 338 9,900 -1,440 Descending FlightAware
11:36PM 33.7670 -111.5020 215° Southwest 289 333 9,200 -1,440 Descending FlightAware
11:36PM 33.7340 -111.5300 215° Southwest 285 328 8,500 -1,140 Descending FlightAware
11:37PM 33.7100 -111.5500 215° Southwest 279 321 8,200 -480 Descending FlightAware
11:37PM 33.6730 -111.5830 217° Southwest 288 331 8,100  Descending FlightAware
11:37PM 33.6600 -111.5940 215° Southwest 287 330 8,200 120 Climbing FlightAware
11:38PM 33.6390 -111.6120 216° Southwest 286 329 8,200  Level FlightAware
11:38PM 33.6150 -111.6320 215° Southwest 287 330 8,200  Level FlightAware
11:38PM 33.5830 -111.6590 215° Southwest 288 331 8,200 -120 Level FlightAware
11:39PM 33.5590 -111.6790 215° Southwest 286 329 8,100 -900 Descending FlightAware
11:39PM 33.5180 -111.7040 207° Southwest 285 328 7,400 -1,320 Descending FlightAware
11:40PM 33.4960 -111.7080 189° South 285 328 7,000 -1,320 Descending FlightAware
11:40PM 33.4560 -111.7160 189° South 274 315 6,300 -1,200 Descending FlightAware
11:40PM 33.4470 -111.7230 213° Southwest 263 303 6,200 -840 Descending FlightAware
11:41PM 33.4370 -111.7490 245° Southwest 235 270 5,900 -1,200 Descending FlightAware
11:41PM 33.4370 -111.7930 270° West 208 239 5,200 -1,080 Descending FlightAware
11:41PM 33.4350 -111.8080 261° West 198 228 5,100 -1,380 Descending FlightAware
11:42PM 33.4300 -111.8330 257° West 173 199 4,300 -1,980 Descending FlightAware
11:42PM 33.4280 -111.8460 260° West 173 199 3,800 -1,680 Descending FlightAware
11:43PM 33.4250 -111.8700 261° West 168 193 3,200 -900 Descending FlightAware
11:43PM 33.4280 -111.8990 277° West 134 154 2,900 -600 Descending FlightAware
11:44PM 33.4290 -111.9170 274° West 133 153 2,600 -720 Descending FlightAware
11:44PM 33.4290 -111.9300 270° West 131 151 2,400 -720 Descending FlightAware
11:44PM 33.4290 -111.9490 270° West 129 148 2,100 -720 Descending FlightAware
11:45PM 33.4290 -111.9680 270° West 130 150 1,800 -660 Descending FlightAware
11:45PM 33.4290 -111.9960 270° West 131 151 1,400 -600 Descending FlightAware